sensor_id;sensor_type;location;lat;lon;timestamp;P1;durP1;ratioP1;P2;durP2;ratioP2
6638;SDS011;3355;52.882;8.430;2023-05-21T00:02:19;9.13;;;4.30;;
6638;SDS011;3355;52.882;8.430;2023-05-21T00:04:46;4.73;;;3.80;;
6638;SDS011;3355;52.882;8.430;2023-05-21T00:07:13;4.47;;;3.83;;
6638;SDS011;3355;52.882;8.430;2023-05-21T00:09:40;5.83;;;3.73;;
6638;SDS011;3355;52.882;8.430;2023-05-21T00:12:08;6.00;;;4.30;;
6638;SDS011;3355;52.882;8.430;2023-05-21T00:14:35;5.50;;;4.60;;
6638;SDS011;3355;52.882;8.430;2023-05-21T00:17:01;13.60;;;4.93;;
6638;SDS011;3355;52.882;8.430;2023-05-21T00:19:30;4.60;;;4.03;;
6638;SDS011;3355;52.882;8.430;2023-05-21T00:21:57;6.03;;;4.40;;
6638;SDS011;3355;52.882;8.430;2023-05-21T00:24:27;4.80;;;3.90;;
6638;SDS011;3355;52.882;8.430;2023-05-21T00:26:54;4.40;;;3.83;;
6638;SDS011;3355;52.882;8.430;2023-05-21T00:29:22;4.87;;;4.37;;
6638;SDS011;3355;52.882;8.430;2023-05-21T00:31:50;4.13;;;3.73;;
6638;SDS011;3355;52.882;8.430;2023-05-21T00:34:17;6.23;;;4.57;;
6638;SDS011;3355;52.882;8.430;2023-05-21T00:36:46;4.87;;;4.10;;
6638;SDS011;3355;52.882;8.430;2023-05-21T00:39:13;5.20;;;4.70;;
6638;SDS011;3355;52.882;8.430;2023-05-21T00:41:40;6.33;;;3.90;;
6638;SDS011;3355;52.882;8.430;2023-05-21T00:44:07;4.10;;;3.70;;
6638;SDS011;3355;52.882;8.430;2023-05-21T00:46:38;4.60;;;3.87;;
6638;SDS011;3355;52.882;8.430;2023-05-21T00:49:08;5.53;;;4.60;;
6638;SDS011;3355;52.882;8.430;2023-05-21T00:51:35;5.03;;;3.90;;
6638;SDS011;3355;52.882;8.430;2023-05-21T00:54:04;5.90;;;4.80;;
6638;SDS011;3355;52.882;8.430;2023-05-21T00:56:32;4.87;;;3.93;;
6638;SDS011;3355;52.882;8.430;2023-05-21T00:58:59;5.93;;;4.10;;
6638;SDS011;3355;52.882;8.430;2023-05-21T01:01:29;5.50;;;4.30;;
6638;SDS011;3355;52.882;8.430;2023-05-21T01:03:57;5.10;;;4.50;;
6638;SDS011;3355;52.882;8.430;2023-05-21T01:06:26;8.53;;;4.63;;
6638;SDS011;3355;52.882;8.430;2023-05-21T01:08:53;5.67;;;4.37;;
6638;SDS011;3355;52.882;8.430;2023-05-21T01:11:23;4.83;;;3.70;;
6638;SDS011;3355;52.882;8.430;2023-05-21T01:13:54;6.83;;;4.47;;
6638;SDS011;3355;52.882;8.430;2023-05-21T01:16:21;4.27;;;3.77;;
6638;SDS011;3355;52.882;8.430;2023-05-21T01:18:48;6.83;;;4.30;;
6638;SDS011;3355;52.882;8.430;2023-05-21T01:21:15;5.20;;;3.93;;
6638;SDS011;3355;52.882;8.430;2023-05-21T01:23:45;4.93;;;3.87;;
6638;SDS011;3355;52.882;8.430;2023-05-21T01:26:12;4.83;;;3.40;;
6638;SDS011;3355;52.882;8.430;2023-05-21T01:28:39;5.50;;;3.90;;
6638;SDS011;3355;52.882;8.430;2023-05-21T01:31:10;4.23;;;3.83;;
6638;SDS011;3355;52.882;8.430;2023-05-21T01:33:43;4.47;;;3.40;;
6638;SDS011;3355;52.882;8.430;2023-05-21T01:36:15;4.70;;;3.83;;
6638;SDS011;3355;52.882;8.430;2023-05-21T01:38:47;5.17;;;3.20;;
6638;SDS011;3355;52.882;8.430;2023-05-21T01:41:20;7.00;;;3.23;;
6638;SDS011;3355;52.882;8.430;2023-05-21T01:43:47;5.80;;;3.30;;
6638;SDS011;3355;52.882;8.430;2023-05-21T01:46:15;6.40;;;3.00;;
6638;SDS011;3355;52.882;8.430;2023-05-21T01:48:43;5.73;;;3.43;;
6638;SDS011;3355;52.882;8.430;2023-05-21T01:51:10;4.80;;;3.70;;
6638;SDS011;3355;52.882;8.430;2023-05-21T01:53:37;8.00;;;3.80;;
6638;SDS011;3355;52.882;8.430;2023-05-21T01:56:06;3.77;;;3.20;;
6638;SDS011;3355;52.882;8.430;2023-05-21T01:58:35;6.77;;;3.20;;
6638;SDS011;3355;52.882;8.430;2023-05-21T02:01:02;5.30;;;4.80;;
6638;SDS011;3355;52.882;8.430;2023-05-21T02:03:29;5.17;;;2.97;;
6638;SDS011;3355;52.882;8.430;2023-05-21T02:05:56;4.23;;;3.27;;
6638;SDS011;3355;52.882;8.430;2023-05-21T02:08:23;5.30;;;3.13;;
6638;SDS011;3355;52.882;8.430;2023-05-21T02:10:51;4.73;;;3.10;;
6638;SDS011;3355;52.882;8.430;2023-05-21T02:13:19;4.70;;;3.60;;
6638;SDS011;3355;52.882;8.430;2023-05-21T02:15:46;5.90;;;3.27;;
6638;SDS011;3355;52.882;8.430;2023-05-21T02:18:13;4.70;;;3.20;;
6638;SDS011;3355;52.882;8.430;2023-05-21T02:20:42;4.17;;;3.33;;
6638;SDS011;3355;52.882;8.430;2023-05-21T02:23:09;4.17;;;3.07;;
6638;SDS011;3355;52.882;8.430;2023-05-21T02:25:36;4.57;;;3.07;;
6638;SDS011;3355;52.882;8.430;2023-05-21T02:28:03;4.53;;;3.13;;
6638;SDS011;3355;52.882;8.430;2023-05-21T02:30:32;4.67;;;3.77;;
6638;SDS011;3355;52.882;8.430;2023-05-21T02:32:59;5.80;;;3.03;;
6638;SDS011;3355;52.882;8.430;2023-05-21T02:35:26;7.80;;;3.00;;
6638;SDS011;3355;52.882;8.430;2023-05-21T02:37:53;3.53;;;3.17;;
6638;SDS011;3355;52.882;8.430;2023-05-21T02:40:23;5.13;;;3.70;;
6638;SDS011;3355;52.882;8.430;2023-05-21T02:42:49;6.53;;;3.27;;
6638;SDS011;3355;52.882;8.430;2023-05-21T02:45:18;5.53;;;3.80;;
6638;SDS011;3355;52.882;8.430;2023-05-21T02:47:46;4.97;;;3.83;;
6638;SDS011;3355;52.882;8.430;2023-05-21T02:50:14;4.80;;;3.40;;
6638;SDS011;3355;52.882;8.430;2023-05-21T02:52:40;8.40;;;4.07;;
6638;SDS011;3355;52.882;8.430;2023-05-21T02:55:07;13.23;;;3.53;;
6638;SDS011;3355;52.882;8.430;2023-05-21T02:57:34;5.67;;;3.60;;
6638;SDS011;3355;52.882;8.430;2023-05-21T03:00:01;6.33;;;3.60;;
6638;SDS011;3355;52.882;8.430;2023-05-21T03:02:29;5.90;;;3.80;;
6638;SDS011;3355;52.882;8.430;2023-05-21T03:04:58;5.33;;;3.30;;
6638;SDS011;3355;52.882;8.430;2023-05-21T03:07:24;7.40;;;3.77;;
6638;SDS011;3355;52.882;8.430;2023-05-21T03:09:51;7.00;;;3.63;;
6638;SDS011;3355;52.882;8.430;2023-05-21T03:12:18;4.50;;;3.43;;
6638;SDS011;3355;52.882;8.430;2023-05-21T03:14:45;3.13;;;2.83;;
6638;SDS011;3355;52.882;8.430;2023-05-21T03:17:12;5.23;;;3.00;;
6638;SDS011;3355;52.882;8.430;2023-05-21T03:19:39;5.03;;;3.47;;
6638;SDS011;3355;52.882;8.430;2023-05-21T03:22:07;6.37;;;3.43;;
6638;SDS011;3355;52.882;8.430;2023-05-21T03:24:36;5.60;;;4.20;;
6638;SDS011;3355;52.882;8.430;2023-05-21T03:27:03;4.60;;;3.10;;
6638;SDS011;3355;52.882;8.430;2023-05-21T03:29:32;4.97;;;3.33;;
6638;SDS011;3355;52.882;8.430;2023-05-21T03:31:59;6.70;;;4.47;;
6638;SDS011;3355;52.882;8.430;2023-05-21T03:34:26;5.80;;;4.10;;
6638;SDS011;3355;52.882;8.430;2023-05-21T03:36:53;5.00;;;3.50;;
6638;SDS011;3355;52.882;8.430;2023-05-21T03:39:21;5.67;;;3.73;;
6638;SDS011;3355;52.882;8.430;2023-05-21T03:41:48;4.77;;;3.37;;
6638;SDS011;3355;52.882;8.430;2023-05-21T03:44:15;4.10;;;3.20;;
6638;SDS011;3355;52.882;8.430;2023-05-21T03:46:42;4.97;;;3.33;;
6638;SDS011;3355;52.882;8.430;2023-05-21T03:49:09;5.33;;;2.90;;
6638;SDS011;3355;52.882;8.430;2023-05-21T03:51:36;5.60;;;3.43;;
6638;SDS011;3355;52.882;8.430;2023-05-21T03:54:04;4.67;;;3.40;;
6638;SDS011;3355;52.882;8.430;2023-05-21T03:56:33;5.80;;;3.07;;
6638;SDS011;3355;52.882;8.430;2023-05-21T03:59:00;4.63;;;3.57;;
6638;SDS011;3355;52.882;8.430;2023-05-21T04:01:27;5.30;;;2.83;;
6638;SDS011;3355;52.882;8.430;2023-05-21T04:03:54;5.10;;;3.00;;
6638;SDS011;3355;52.882;8.430;2023-05-21T04:06:21;4.67;;;3.87;;
6638;SDS011;3355;52.882;8.430;2023-05-21T04:08:47;5.47;;;3.30;;
6638;SDS011;3355;52.882;8.430;2023-05-21T04:11:15;5.53;;;3.13;;
6638;SDS011;3355;52.882;8.430;2023-05-21T04:13:43;3.80;;;3.23;;
6638;SDS011;3355;52.882;8.430;2023-05-21T04:16:12;4.50;;;3.17;;
6638;SDS011;3355;52.882;8.430;2023-05-21T04:18:38;6.93;;;3.47;;
6638;SDS011;3355;52.882;8.430;2023-05-21T04:21:05;6.70;;;3.70;;
6638;SDS011;3355;52.882;8.430;2023-05-21T04:23:32;7.27;;;3.90;;
6638;SDS011;3355;52.882;8.430;2023-05-21T04:31:20;4.50;;;2.83;;
6638;SDS011;3355;52.882;8.430;2023-05-21T04:33:47;6.53;;;3.50;;
6638;SDS011;3355;52.882;8.430;2023-05-21T04:36:14;6.30;;;3.63;;
6638;SDS011;3355;52.882;8.430;2023-05-21T04:38:42;8.60;;;3.47;;
6638;SDS011;3355;52.882;8.430;2023-05-21T04:41:09;4.93;;;3.60;;
6638;SDS011;3355;52.882;8.430;2023-05-21T04:43:38;5.50;;;2.83;;
6638;SDS011;3355;52.882;8.430;2023-05-21T04:46:07;4.13;;;3.50;;
6638;SDS011;3355;52.882;8.430;2023-05-21T04:48:36;4.10;;;2.77;;
6638;SDS011;3355;52.882;8.430;2023-05-21T04:51:04;3.60;;;2.90;;
6638;SDS011;3355;52.882;8.430;2023-05-21T04:53:31;4.13;;;3.23;;
6638;SDS011;3355;52.882;8.430;2023-05-21T04:56:00;5.30;;;2.70;;
6638;SDS011;3355;52.882;8.430;2023-05-21T04:58:27;7.10;;;3.27;;
6638;SDS011;3355;52.882;8.430;2023-05-21T05:00:53;4.57;;;3.50;;
6638;SDS011;3355;52.882;8.430;2023-05-21T05:03:21;3.27;;;2.93;;
6638;SDS011;3355;52.882;8.430;2023-05-21T05:05:50;8.60;;;4.00;;
6638;SDS011;3355;52.882;8.430;2023-05-21T05:08:18;7.13;;;3.43;;
6638;SDS011;3355;52.882;8.430;2023-05-21T05:10:46;4.37;;;2.70;;
6638;SDS011;3355;52.882;8.430;2023-05-21T05:13:16;7.07;;;4.07;;
6638;SDS011;3355;52.882;8.430;2023-05-21T05:15:45;8.00;;;3.50;;
6638;SDS011;3355;52.882;8.430;2023-05-21T05:18:16;4.93;;;3.30;;
6638;SDS011;3355;52.882;8.430;2023-05-21T05:20:43;6.30;;;3.13;;
6638;SDS011;3355;52.882;8.430;2023-05-21T05:23:13;6.60;;;3.83;;
6638;SDS011;3355;52.882;8.430;2023-05-21T05:25:40;6.57;;;3.30;;
6638;SDS011;3355;52.882;8.430;2023-05-21T05:28:07;5.30;;;3.70;;
6638;SDS011;3355;52.882;8.430;2023-05-21T05:30:34;4.33;;;2.83;;
6638;SDS011;3355;52.882;8.430;2023-05-21T05:33:01;5.37;;;2.90;;
6638;SDS011;3355;52.882;8.430;2023-05-21T05:35:28;7.13;;;3.53;;
6638;SDS011;3355;52.882;8.430;2023-05-21T05:37:55;6.37;;;3.53;;
6638;SDS011;3355;52.882;8.430;2023-05-21T05:40:24;4.47;;;3.57;;
6638;SDS011;3355;52.882;8.430;2023-05-21T05:42:51;4.70;;;3.50;;
6638;SDS011;3355;52.882;8.430;2023-05-21T05:45:18;5.20;;;3.37;;
6638;SDS011;3355;52.882;8.430;2023-05-21T05:47:45;6.20;;;3.30;;
6638;SDS011;3355;52.882;8.430;2023-05-21T05:50:12;6.70;;;3.50;;
6638;SDS011;3355;52.882;8.430;2023-05-21T05:52:40;6.70;;;3.13;;
6638;SDS011;3355;52.882;8.430;2023-05-21T05:55:08;4.87;;;3.60;;
6638;SDS011;3355;52.882;8.430;2023-05-21T05:57:38;5.17;;;3.30;;
6638;SDS011;3355;52.882;8.430;2023-05-21T06:00:07;5.10;;;3.50;;
6638;SDS011;3355;52.882;8.430;2023-05-21T06:02:35;4.60;;;3.13;;
6638;SDS011;3355;52.882;8.430;2023-05-21T06:05:04;8.73;;;3.67;;
6638;SDS011;3355;52.882;8.430;2023-05-21T06:07:36;3.83;;;3.10;;
6638;SDS011;3355;52.882;8.430;2023-05-21T06:10:05;6.20;;;4.00;;
6638;SDS011;3355;52.882;8.430;2023-05-21T06:15:08;7.53;;;4.20;;
6638;SDS011;3355;52.882;8.430;2023-05-21T06:17:38;6.17;;;3.87;;
6638;SDS011;3355;52.882;8.430;2023-05-21T06:20:06;4.53;;;3.93;;
6638;SDS011;3355;52.882;8.430;2023-05-21T06:22:44;5.10;;;3.93;;
6638;SDS011;3355;52.882;8.430;2023-05-21T06:25:25;6.63;;;3.90;;
6638;SDS011;3355;52.882;8.430;2023-05-21T06:27:52;4.53;;;3.30;;
6638;SDS011;3355;52.882;8.430;2023-05-21T06:30:22;4.63;;;3.70;;
6638;SDS011;3355;52.882;8.430;2023-05-21T06:32:49;6.60;;;3.77;;
6638;SDS011;3355;52.882;8.430;2023-05-21T06:35:16;4.27;;;3.83;;
6638;SDS011;3355;52.882;8.430;2023-05-21T06:37:44;5.50;;;3.80;;
6638;SDS011;3355;52.882;8.430;2023-05-21T06:40:11;4.47;;;4.07;;
6638;SDS011;3355;52.882;8.430;2023-05-21T06:42:39;6.97;;;4.37;;
6638;SDS011;3355;52.882;8.430;2023-05-21T06:45:09;5.30;;;4.30;;
6638;SDS011;3355;52.882;8.430;2023-05-21T06:47:38;5.40;;;4.23;;
6638;SDS011;3355;52.882;8.430;2023-05-21T06:50:06;7.03;;;3.77;;
6638;SDS011;3355;52.882;8.430;2023-05-21T06:52:38;5.33;;;3.73;;
6638;SDS011;3355;52.882;8.430;2023-05-21T06:55:05;8.33;;;4.43;;
6638;SDS011;3355;52.882;8.430;2023-05-21T06:57:33;7.63;;;4.30;;
6638;SDS011;3355;52.882;8.430;2023-05-21T07:00:00;4.83;;;3.80;;
6638;SDS011;3355;52.882;8.430;2023-05-21T07:02:27;6.37;;;4.03;;
6638;SDS011;3355;52.882;8.430;2023-05-21T07:04:55;6.50;;;4.47;;
6638;SDS011;3355;52.882;8.430;2023-05-21T07:07:22;7.87;;;4.47;;
6638;SDS011;3355;52.882;8.430;2023-05-21T07:09:49;5.23;;;3.87;;
6638;SDS011;3355;52.882;8.430;2023-05-21T07:12:16;6.80;;;5.50;;
6638;SDS011;3355;52.882;8.430;2023-05-21T07:14:43;5.60;;;4.30;;
6638;SDS011;3355;52.882;8.430;2023-05-21T07:17:10;4.93;;;3.90;;
6638;SDS011;3355;52.882;8.430;2023-05-21T07:19:37;6.70;;;4.80;;
6638;SDS011;3355;52.882;8.430;2023-05-21T07:22:05;7.53;;;4.43;;
6638;SDS011;3355;52.882;8.430;2023-05-21T07:24:32;7.67;;;4.90;;
6638;SDS011;3355;52.882;8.430;2023-05-21T07:27:00;5.40;;;4.53;;
6638;SDS011;3355;52.882;8.430;2023-05-21T07:29:27;6.77;;;4.30;;
6638;SDS011;3355;52.882;8.430;2023-05-21T07:31:55;4.77;;;4.33;;
6638;SDS011;3355;52.882;8.430;2023-05-21T07:34:21;6.43;;;4.57;;
6638;SDS011;3355;52.882;8.430;2023-05-21T07:36:48;4.80;;;4.13;;
6638;SDS011;3355;52.882;8.430;2023-05-21T07:39:17;4.93;;;4.23;;
6638;SDS011;3355;52.882;8.430;2023-05-21T07:41:44;5.80;;;5.20;;
6638;SDS011;3355;52.882;8.430;2023-05-21T07:44:11;6.57;;;4.97;;
6638;SDS011;3355;52.882;8.430;2023-05-21T07:46:38;6.70;;;4.47;;
6638;SDS011;3355;52.882;8.430;2023-05-21T07:49:05;6.93;;;6.07;;
6638;SDS011;3355;52.882;8.430;2023-05-21T07:51:35;6.13;;;5.40;;
6638;SDS011;3355;52.882;8.430;2023-05-21T07:54:02;6.30;;;5.30;;
6638;SDS011;3355;52.882;8.430;2023-05-21T07:56:30;4.63;;;4.13;;
6638;SDS011;3355;52.882;8.430;2023-05-21T07:58:58;7.10;;;5.30;;
6638;SDS011;3355;52.882;8.430;2023-05-21T08:01:27;7.63;;;4.73;;
6638;SDS011;3355;52.882;8.430;2023-05-21T08:03:55;6.53;;;5.43;;
6638;SDS011;3355;52.882;8.430;2023-05-21T08:06:24;6.80;;;5.93;;
6638;SDS011;3355;52.882;8.430;2023-05-21T08:08:51;7.30;;;4.97;;
6638;SDS011;3355;52.882;8.430;2023-05-21T08:11:18;5.80;;;4.90;;
6638;SDS011;3355;52.882;8.430;2023-05-21T08:13:47;7.30;;;5.40;;
6638;SDS011;3355;52.882;8.430;2023-05-21T08:16:14;8.93;;;5.90;;
6638;SDS011;3355;52.882;8.430;2023-05-21T08:18:56;8.00;;;5.37;;
6638;SDS011;3355;52.882;8.430;2023-05-21T08:21:23;7.97;;;5.97;;
6638;SDS011;3355;52.882;8.430;2023-05-21T08:23:51;8.00;;;5.03;;
6638;SDS011;3355;52.882;8.430;2023-05-21T08:26:18;6.87;;;5.87;;
6638;SDS011;3355;52.882;8.430;2023-05-21T08:28:46;8.83;;;5.77;;
6638;SDS011;3355;52.882;8.430;2023-05-21T08:31:16;6.97;;;5.30;;
6638;SDS011;3355;52.882;8.430;2023-05-21T08:33:48;6.83;;;6.00;;
6638;SDS011;3355;52.882;8.430;2023-05-21T08:36:15;7.03;;;6.33;;
6638;SDS011;3355;52.882;8.430;2023-05-21T08:38:44;7.70;;;6.20;;
6638;SDS011;3355;52.882;8.430;2023-05-21T08:41:11;7.07;;;6.30;;
6638;SDS011;3355;52.882;8.430;2023-05-21T08:43:41;6.93;;;6.13;;
6638;SDS011;3355;52.882;8.430;2023-05-21T08:46:11;7.40;;;6.63;;
6638;SDS011;3355;52.882;8.430;2023-05-21T08:48:38;8.10;;;7.20;;
6638;SDS011;3355;52.882;8.430;2023-05-21T08:51:05;7.93;;;7.13;;
6638;SDS011;3355;52.882;8.430;2023-05-21T08:53:32;9.17;;;7.60;;
6638;SDS011;3355;52.882;8.430;2023-05-21T08:56:01;7.90;;;7.10;;
6638;SDS011;3355;52.882;8.430;2023-05-21T08:58:28;9.53;;;7.57;;
6638;SDS011;3355;52.882;8.430;2023-05-21T09:01:04;9.23;;;7.63;;
6638;SDS011;3355;52.882;8.430;2023-05-21T09:03:35;7.43;;;6.63;;
6638;SDS011;3355;52.882;8.430;2023-05-21T09:06:07;8.13;;;7.20;;
6638;SDS011;3355;52.882;8.430;2023-05-21T09:12:34;9.00;;;7.73;;
6638;SDS011;3355;52.882;8.430;2023-05-21T09:15:05;9.33;;;8.13;;
6638;SDS011;3355;52.882;8.430;2023-05-21T09:17:38;11.40;;;8.07;;
6638;SDS011;3355;52.882;8.430;2023-05-21T09:20:15;9.43;;;8.50;;
6638;SDS011;3355;52.882;8.430;2023-05-21T09:23:03;8.63;;;6.90;;
6638;SDS011;3355;52.882;8.430;2023-05-21T09:25:43;9.20;;;8.30;;
6638;SDS011;3355;52.882;8.430;2023-05-21T09:28:12;9.60;;;8.63;;
6638;SDS011;3355;52.882;8.430;2023-05-21T09:30:44;9.07;;;8.17;;
6638;SDS011;3355;52.882;8.430;2023-05-21T09:33:23;11.97;;;9.20;;
6638;SDS011;3355;52.882;8.430;2023-05-21T09:35:53;11.03;;;9.03;;
6638;SDS011;3355;52.882;8.430;2023-05-21T09:38:20;8.97;;;8.03;;
6638;SDS011;3355;52.882;8.430;2023-05-21T09:40:52;8.47;;;7.60;;
6638;SDS011;3355;52.882;8.430;2023-05-21T09:43:34;10.47;;;9.47;;
6638;SDS011;3355;52.882;8.430;2023-05-21T09:46:02;12.77;;;9.20;;
6638;SDS011;3355;52.882;8.430;2023-05-21T09:49:02;9.03;;;7.90;;
6638;SDS011;3355;52.882;8.430;2023-05-21T09:51:39;10.20;;;8.10;;
6638;SDS011;3355;52.882;8.430;2023-05-21T09:54:10;10.70;;;8.60;;
6638;SDS011;3355;52.882;8.430;2023-05-21T09:56:38;10.10;;;9.03;;
6638;SDS011;3355;52.882;8.430;2023-05-21T10:02:02;11.20;;;10.03;;
6638;SDS011;3355;52.882;8.430;2023-05-21T10:04:30;10.33;;;9.33;;
6638;SDS011;3355;52.882;8.430;2023-05-21T10:07:05;11.13;;;9.83;;
6638;SDS011;3355;52.882;8.430;2023-05-21T10:09:39;10.63;;;9.53;;
6638;SDS011;3355;52.882;8.430;2023-05-21T10:12:11;13.30;;;12.00;;
6638;SDS011;3355;52.882;8.430;2023-05-21T10:17:42;11.03;;;10.00;;
6638;SDS011;3355;52.882;8.430;2023-05-21T10:20:27;12.37;;;9.73;;
6638;SDS011;3355;52.882;8.430;2023-05-21T10:26:31;11.50;;;10.20;;
6638;SDS011;3355;52.882;8.430;2023-05-21T10:28:58;13.97;;;12.67;;
6638;SDS011;3355;52.882;8.430;2023-05-21T10:31:25;11.53;;;10.43;;
6638;SDS011;3355;52.882;8.430;2023-05-21T10:33:52;11.60;;;10.33;;
6638;SDS011;3355;52.882;8.430;2023-05-21T10:36:19;12.07;;;10.87;;
6638;SDS011;3355;52.882;8.430;2023-05-21T10:38:47;11.33;;;10.20;;
6638;SDS011;3355;52.882;8.430;2023-05-21T10:41:13;11.43;;;10.33;;
6638;SDS011;3355;52.882;8.430;2023-05-21T10:43:49;14.30;;;10.10;;
6638;SDS011;3355;52.882;8.430;2023-05-21T10:46:38;12.90;;;11.50;;
6638;SDS011;3355;52.882;8.430;2023-05-21T10:49:17;12.97;;;10.83;;
6638;SDS011;3355;52.882;8.430;2023-05-21T10:51:52;11.53;;;10.37;;
6638;SDS011;3355;52.882;8.430;2023-05-21T10:54:36;11.60;;;10.40;;
6638;SDS011;3355;52.882;8.430;2023-05-21T10:57:19;10.53;;;9.40;;
6638;SDS011;3355;52.882;8.430;2023-05-21T11:02:40;12.90;;;11.60;;
6638;SDS011;3355;52.882;8.430;2023-05-21T11:05:06;12.70;;;10.13;;
6638;SDS011;3355;52.882;8.430;2023-05-21T11:10:34;13.67;;;11.60;;
6638;SDS011;3355;52.882;8.430;2023-05-21T11:13:10;12.23;;;10.90;;
6638;SDS011;3355;52.882;8.430;2023-05-21T11:18:57;12.63;;;11.43;;
6638;SDS011;3355;52.882;8.430;2023-05-21T11:21:27;15.17;;;10.83;;
6638;SDS011;3355;52.882;8.430;2023-05-21T11:23:55;13.53;;;11.20;;
6638;SDS011;3355;52.882;8.430;2023-05-21T11:26:25;12.63;;;11.50;;
6638;SDS011;3355;52.882;8.430;2023-05-21T11:29:05;11.43;;;10.30;;
6638;SDS011;3355;52.882;8.430;2023-05-21T11:31:34;12.43;;;10.50;;
6638;SDS011;3355;52.882;8.430;2023-05-21T11:34:12;10.43;;;9.50;;
6638;SDS011;3355;52.882;8.430;2023-05-21T11:36:40;11.30;;;10.10;;
6638;SDS011;3355;52.882;8.430;2023-05-21T11:39:08;11.30;;;10.20;;
6638;SDS011;3355;52.882;8.430;2023-05-21T11:47:11;11.80;;;10.60;;
6638;SDS011;3355;52.882;8.430;2023-05-21T11:49:38;10.57;;;9.63;;
6638;SDS011;3355;52.882;8.430;2023-05-21T11:52:06;12.90;;;10.57;;
6638;SDS011;3355;52.882;8.430;2023-05-21T11:54:37;11.90;;;10.70;;
6638;SDS011;3355;52.882;8.430;2023-05-21T11:57:05;9.77;;;8.87;;
6638;SDS011;3355;52.882;8.430;2023-05-21T11:59:32;11.30;;;10.20;;
6638;SDS011;3355;52.882;8.430;2023-05-21T12:01:59;12.50;;;11.20;;
6638;SDS011;3355;52.882;8.430;2023-05-21T12:04:29;10.93;;;9.93;;
6638;SDS011;3355;52.882;8.430;2023-05-21T12:06:56;10.90;;;10.00;;
6638;SDS011;3355;52.882;8.430;2023-05-21T12:09:23;12.17;;;11.00;;
6638;SDS011;3355;52.882;8.430;2023-05-21T12:11:50;10.27;;;9.30;;
6638;SDS011;3355;52.882;8.430;2023-05-21T12:14:18;10.80;;;9.80;;
6638;SDS011;3355;52.882;8.430;2023-05-21T12:16:45;12.37;;;10.20;;
6638;SDS011;3355;52.882;8.430;2023-05-21T12:19:11;12.07;;;10.80;;
6638;SDS011;3355;52.882;8.430;2023-05-21T12:21:40;11.40;;;10.30;;
6638;SDS011;3355;52.882;8.430;2023-05-21T12:24:07;11.20;;;10.17;;
6638;SDS011;3355;52.882;8.430;2023-05-21T12:26:33;11.43;;;10.33;;
6638;SDS011;3355;52.882;8.430;2023-05-21T12:29:01;11.70;;;10.60;;
6638;SDS011;3355;52.882;8.430;2023-05-21T12:31:29;11.13;;;10.03;;
6638;SDS011;3355;52.882;8.430;2023-05-21T12:33:56;11.60;;;10.40;;
6638;SDS011;3355;52.882;8.430;2023-05-21T12:36:24;11.03;;;9.93;;
6638;SDS011;3355;52.882;8.430;2023-05-21T12:38:53;10.87;;;9.87;;
6638;SDS011;3355;52.882;8.430;2023-05-21T12:41:21;12.60;;;10.70;;
6638;SDS011;3355;52.882;8.430;2023-05-21T12:43:48;11.87;;;10.67;;
6638;SDS011;3355;52.882;8.430;2023-05-21T12:46:16;10.97;;;9.97;;
6638;SDS011;3355;52.882;8.430;2023-05-21T12:48:49;11.70;;;10.40;;
6638;SDS011;3355;52.882;8.430;2023-05-21T12:51:18;11.30;;;10.20;;
6638;SDS011;3355;52.882;8.430;2023-05-21T12:53:45;10.43;;;9.50;;
6638;SDS011;3355;52.882;8.430;2023-05-21T12:56:14;11.30;;;10.30;;
6638;SDS011;3355;52.882;8.430;2023-05-21T12:58:41;12.00;;;10.77;;
6638;SDS011;3355;52.882;8.430;2023-05-21T13:01:08;10.83;;;9.80;;
6638;SDS011;3355;52.882;8.430;2023-05-21T13:03:35;9.63;;;8.73;;
6638;SDS011;3355;52.882;8.430;2023-05-21T13:06:03;10.97;;;9.97;;
6638;SDS011;3355;52.882;8.430;2023-05-21T13:08:33;9.60;;;8.70;;
6638;SDS011;3355;52.882;8.430;2023-05-21T13:11:00;10.60;;;9.70;;
6638;SDS011;3355;52.882;8.430;2023-05-21T13:13:28;12.10;;;10.90;;
6638;SDS011;3355;52.882;8.430;2023-05-21T13:15:55;11.43;;;10.47;;
6638;SDS011;3355;52.882;8.430;2023-05-21T13:18:24;11.47;;;10.33;;
6638;SDS011;3355;52.882;8.430;2023-05-21T13:20:51;10.60;;;9.60;;
6638;SDS011;3355;52.882;8.430;2023-05-21T13:23:17;11.83;;;10.63;;
6638;SDS011;3355;52.882;8.430;2023-05-21T13:25:44;11.63;;;10.53;;
6638;SDS011;3355;52.882;8.430;2023-05-21T13:28:11;11.27;;;10.17;;
6638;SDS011;3355;52.882;8.430;2023-05-21T13:30:40;11.20;;;10.20;;
6638;SDS011;3355;52.882;8.430;2023-05-21T13:33:07;11.43;;;10.27;;
6638;SDS011;3355;52.882;8.430;2023-05-21T13:35:34;16.97;;;14.60;;
6638;SDS011;3355;52.882;8.430;2023-05-21T13:38:00;12.83;;;11.53;;
6638;SDS011;3355;52.882;8.430;2023-05-21T13:40:27;13.43;;;12.20;;
6638;SDS011;3355;52.882;8.430;2023-05-21T13:42:53;12.60;;;11.30;;
6638;SDS011;3355;52.882;8.430;2023-05-21T13:45:20;11.23;;;10.23;;
6638;SDS011;3355;52.882;8.430;2023-05-21T13:47:54;12.50;;;11.40;;
6638;SDS011;3355;52.882;8.430;2023-05-21T13:50:21;10.47;;;9.57;;
6638;SDS011;3355;52.882;8.430;2023-05-21T13:52:48;11.63;;;10.53;;
6638;SDS011;3355;52.882;8.430;2023-05-21T13:55:14;12.10;;;11.00;;
6638;SDS011;3355;52.882;8.430;2023-05-21T13:57:42;10.30;;;9.40;;
6638;SDS011;3355;52.882;8.430;2023-05-21T14:00:10;11.47;;;10.50;;
6638;SDS011;3355;52.882;8.430;2023-05-21T14:02:40;11.63;;;10.50;;
6638;SDS011;3355;52.882;8.430;2023-05-21T14:05:09;12.20;;;11.00;;
6638;SDS011;3355;52.882;8.430;2023-05-21T14:07:36;12.37;;;11.27;;
6638;SDS011;3355;52.882;8.430;2023-05-21T14:10:04;11.17;;;10.07;;
6638;SDS011;3355;52.882;8.430;2023-05-21T14:12:31;11.00;;;10.10;;
6638;SDS011;3355;52.882;8.430;2023-05-21T14:14:58;11.90;;;10.90;;
6638;SDS011;3355;52.882;8.430;2023-05-21T14:17:25;10.80;;;9.80;;
6638;SDS011;3355;52.882;8.430;2023-05-21T14:19:52;10.53;;;9.53;;
6638;SDS011;3355;52.882;8.430;2023-05-21T14:22:20;10.83;;;9.83;;
6638;SDS011;3355;52.882;8.430;2023-05-21T14:24:46;11.15;;;10.25;;
6638;SDS011;3355;52.882;8.430;2023-05-21T14:27:14;11.77;;;10.63;;
6638;SDS011;3355;52.882;8.430;2023-05-21T14:29:40;11.20;;;10.20;;
6638;SDS011;3355;52.882;8.430;2023-05-21T14:32:07;11.53;;;10.43;;
6638;SDS011;3355;52.882;8.430;2023-05-21T14:34:33;11.27;;;10.32;;
6638;SDS011;3355;52.882;8.430;2023-05-21T14:37:00;11.75;;;10.65;;
6638;SDS011;3355;52.882;8.430;2023-05-21T14:39:28;12.33;;;11.07;;
6638;SDS011;3355;52.882;8.430;2023-05-21T14:41:55;11.83;;;10.80;;
6638;SDS011;3355;52.882;8.430;2023-05-21T14:44:23;12.20;;;11.20;;
6638;SDS011;3355;52.882;8.430;2023-05-21T14:46:50;11.30;;;10.33;;
6638;SDS011;3355;52.882;8.430;2023-05-21T14:49:17;12.90;;;10.57;;
6638;SDS011;3355;52.882;8.430;2023-05-21T14:51:44;12.23;;;11.02;;
6638;SDS011;3355;52.882;8.430;2023-05-21T14:54:11;11.73;;;10.60;;
6638;SDS011;3355;52.882;8.430;2023-05-21T14:56:39;11.57;;;10.27;;
6638;SDS011;3355;52.882;8.430;2023-05-21T14:59:07;10.60;;;9.60;;
6638;SDS011;3355;52.882;8.430;2023-05-21T15:01:35;12.17;;;11.07;;
6638;SDS011;3355;52.882;8.430;2023-05-21T15:04:02;10.70;;;9.80;;
6638;SDS011;3355;52.882;8.430;2023-05-21T15:06:29;12.63;;;11.47;;
6638;SDS011;3355;52.882;8.430;2023-05-21T15:08:56;13.07;;;11.90;;
6638;SDS011;3355;52.882;8.430;2023-05-21T15:11:22;10.90;;;9.90;;
6638;SDS011;3355;52.882;8.430;2023-05-21T15:13:51;12.10;;;11.10;;
6638;SDS011;3355;52.882;8.430;2023-05-21T15:16:17;13.07;;;11.97;;
6638;SDS011;3355;52.882;8.430;2023-05-21T15:18:44;13.50;;;12.30;;
6638;SDS011;3355;52.882;8.430;2023-05-21T15:21:10;11.60;;;10.60;;
6638;SDS011;3355;52.882;8.430;2023-05-21T15:23:37;10.40;;;9.60;;
6638;SDS011;3355;52.882;8.430;2023-05-21T15:26:04;13.37;;;12.17;;
6638;SDS011;3355;52.882;8.430;2023-05-21T15:28:32;12.57;;;11.40;;
6638;SDS011;3355;52.882;8.430;2023-05-21T15:31:00;12.23;;;11.13;;
6638;SDS011;3355;52.882;8.430;2023-05-21T15:33:27;14.53;;;11.30;;
6638;SDS011;3355;52.882;8.430;2023-05-21T15:35:53;11.70;;;10.70;;
6638;SDS011;3355;52.882;8.430;2023-05-21T15:38:20;10.87;;;9.97;;
6638;SDS011;3355;52.882;8.430;2023-05-21T15:40:46;10.60;;;9.70;;
6638;SDS011;3355;52.882;8.430;2023-05-21T15:43:13;11.43;;;10.47;;
6638;SDS011;3355;52.882;8.430;2023-05-21T15:45:40;11.60;;;10.60;;
6638;SDS011;3355;52.882;8.430;2023-05-21T15:48:08;10.37;;;9.37;;
6638;SDS011;3355;52.882;8.430;2023-05-21T15:50:36;11.63;;;10.63;;